Maersk Varna — 9V8838 — position and weather

sailwx.info

Track history (hours):
 
Tides and Currents Weather Stations Pressure Air Temp Water Temp Dewpoint Dewpoint Depression Visibility Wind Speed Wind Dir Waves Ship Positions

Maersk Varna

Last reported at 2017-Nov-25 19:42 UTC. Time now 2017-Dec-11 11:14 UTC.
Position N 19°33' W 063°07'.
Warning: this ship's position is 15 days out of date.

Length 180 m; draft 8.6 m.

Type: Ship (hazmat cat A). MMSI: 564822000.

Date/timePositionNaut miles runAvg speedWind from/ knotsBaromVisibWave heightAir tempDewpointWater temp
2017-Nov-25 19:42N 19°33' W 063°07'416.9
2017-Nov-25 19:28N 19°35' W 063°10'  
2017-Nov-19 15:01N 36°46' W 075°44'210.0
2017-Nov-19 14:49N 36°47' W 075°45'3 9.6
2017-Nov-19 14:31N 36°49' W 075°48'510.1
2017-Nov-19 14:00N 36°52' W 075°53'510.0
2017-Nov-19 13:30N 36°56' W 075°57'510.0
2017-Nov-19 13:01N 36°58' W 076°03'814.8
2017-Nov-19 12:30N 36°60' W 076°12'613.0
2017-Nov-19 12:01N 36°58' W 076°20'5 9.8
2017-Nov-19 11:31N 36°53' W 076°20'1 1.9
2017-Nov-19 11:01N 36°53' W 076°21'0 0.0
2017-Nov-19 10:30N 36°53' W 076°21'0 0.0
2017-Nov-19 10:00N 36°53' W 076°21'0 0.0
2017-Nov-19 09:30N 36°53' W 076°21'0 0.0
2017-Nov-19 09:00N 36°53' W 076°21'0 0.0
2017-Nov-19 08:30N 36°53' W 076°21'0 0.0
2017-Nov-19 08:00N 36°53' W 076°21'0 0.0
2017-Nov-19 07:30N 36°53' W 076°21'0 0.0
2017-Nov-19 07:00N 36°53' W 076°21'0 0.0
2017-Nov-19 06:30N 36°53' W 076°21'0 0.0
2017-Nov-19 06:00N 36°53' W 076°21'0 0.0
2017-Nov-19 05:30N 36°53' W 076°21'0 0.0
2017-Nov-19 05:00N 36°53' W 076°21'0 0.0
2017-Nov-19 04:27N 36°53' W 076°21'0 0.0
2017-Nov-19 04:00N 36°53' W 076°21'0 0.0
2017-Nov-19 03:30N 36°53' W 076°21'0 0.0
2017-Nov-19 03:00N 36°53' W 076°21'0 0.0
2017-Nov-19 02:30N 36°53' W 076°21'0 0.0
2017-Nov-19 02:00N 36°53' W 076°21'0 0.0
2017-Nov-19 01:30N 36°53' W 076°21'0 0.0
2017-Nov-19 01:00N 36°53' W 076°21'0 0.0
2017-Nov-19 00:30N 36°53' W 076°21'0 0.0
2017-Nov-19 00:00N 36°53' W 076°21'0 0.0
2017-Nov-18 23:30N 36°53' W 076°21'0 0.0
2017-Nov-18 23:00N 36°53' W 076°21'0 0.0
2017-Nov-18 22:30N 36°53' W 076°21'1 1.6
2017-Nov-18 22:00N 36°53' W 076°20'4 8.7
2017-Nov-18 21:30N 36°57' W 076°20'1012.4
2017-Nov-18 20:41N 36°59' W 076°07'316.2
2017-Nov-18 20:30N 36°58' W 076°04'611.7
2017-Nov-18 20:00N 36°56' W 075°57'4 8.3
2017-Nov-18 19:30N 36°54' W 075°53'5 6.9
2017-Nov-18 18:50N 36°51' W 075°48'2 7.2
2017-Nov-18 18:30N 36°50' W 075°46'1 0.1
2017-Nov-18 07:49N 36°49' W 075°46'3 8.6
2017-Nov-18 07:30N 36°50' W 075°49'4 9.0
2017-Nov-18 07:01N 36°53' W 075°53'5 9.2
2017-Nov-18 06:31N 36°56' W 075°58'510.3
2017-Nov-18 06:00N 36°60' W 076°01'1217.7
2017-Nov-18 05:19N 37°10' W 076°09'4916.3
2017-Nov-18 02:19N 37°59' W 076°12'4118.3
2017-Nov-18 00:04N 38°39' W 076°25'118.1
2017-Nov-18 00:00N 38°40' W 076°25'917.6
2017-Nov-17 23:30N 38°49' W 076°25'917.3
2017-Nov-17 23:00N 38°57' W 076°23'714.8
2017-Nov-17 22:30N 39°05' W 076°24'713.0
2017-Nov-17 22:00N 39°11' W 076°27'612.0
2017-Nov-17 21:30N 39°14' W 076°33'1 1.3
2017-Nov-17 20:44N 39°15' W 076°33'0 0.0
2017-Nov-17 20:29N 39°15' W 076°33'0 0.0
2017-Nov-17 19:59N 39°15' W 076°33'0 0.0
2017-Nov-17 19:29N 39°15' W 076°33'0 0.0
2017-Nov-17 18:59N 39°15' W 076°33'0 0.0
2017-Nov-17 18:29N 39°15' W 076°33'0 0.0
2017-Nov-17 17:59N 39°15' W 076°33'0 0.0
2017-Nov-17 17:29N 39°15' W 076°33'0 0.0
2017-Nov-17 16:59N 39°15' W 076°33'0 0.0
2017-Nov-17 16:23N 39°15' W 076°33'0 0.0
2017-Nov-17 15:59N 39°15' W 076°33'0 0.0
2017-Nov-17 15:29N 39°15' W 076°33'0 0.0
2017-Nov-17 14:59N 39°15' W 076°33'0 0.0
2017-Nov-17 14:20N 39°15' W 076°33'0 0.0
2017-Nov-17 13:59N 39°15' W 076°33'0 0.0
2017-Nov-17 13:29N 39°15' W 076°33'0 0.0
2017-Nov-17 12:59N 39°15' W 076°33'0 0.0
2017-Nov-17 12:29N 39°15' W 076°33'0 0.6
2017-Nov-17 12:00N 39°15' W 076°33'2 3.4
2017-Nov-17 11:30N 39°13' W 076°32'4 8.4
2017-Nov-17 11:00N 39°11' W 076°28'611.2
2017-Nov-17 10:30N 39°06' W 076°24'714.0
2017-Nov-17 10:00N 38°59' W 076°23'815.5
2017-Nov-17 09:30N 38°52' W 076°24'917.8
2017-Nov-17 09:00N 38°43' W 076°26'10515.8
2017-Nov-17 02:24N 37°00' W 076°01'511.3
2017-Nov-17 01:59N 36°57' W 075°58'5 8.2
2017-Nov-17 01:23N 36°54' W 075°53'5 8.3
2017-Nov-17 00:47N 36°51' W 075°48'13412.6
2017-Nov-16 14:08N 38°46' W 074°20'214.2
2017-Nov-16 13:58N 38°48' W 074°19'714.2
2017-Nov-16 13:31N 38°54' W 074°16'714.1
2017-Nov-16 13:00N 39°01' W 074°13'713.6
2017-Nov-16 12:30N 39°07' W 074°10'713.5
2017-Nov-16 11:59N 39°14' W 074°07'713.5
2017-Nov-16 11:28N 39°20' W 074°04'713.4
2017-Nov-16 10:56N 39°27' W 074°00'613.4
2017-Nov-16 10:29N 39°32' W 073°57'713.2
2017-Nov-16 09:59N 39°39' W 073°54'713.1
2017-Nov-16 09:28N 39°45' W 073°51'613.1
2017-Nov-16 09:00N 39°51' W 073°51'2112.6
2017-Nov-16 07:21N 40°12' W 073°50'410.0
2017-Nov-16 06:57N 40°16' W 073°49'4 9.9
2017-Nov-16 06:30N 40°20' W 073°49'5 9.9
2017-Nov-16 06:00N 40°25' W 073°49'4 7.4
2017-Nov-16 05:29N 40°28' W 073°52'510.9
2017-Nov-16 05:00N 40°30' W 073°58'714.5
2017-Nov-16 04:31N 40°37' W 074°03'4 7.5
2017-Nov-16 04:00N 40°39' W 074°07'2 3.8
2017-Nov-16 03:30N 40°40' W 074°08'1 2.1
2017-Nov-16 03:00N 40°41' W 074°09'0 0.0
2017-Nov-16 02:30N 40°41' W 074°09'0 0.0
2017-Nov-16 02:00N 40°41' W 074°09'0 0.0
2017-Nov-16 01:30N 40°41' W 074°09'0 0.0
2017-Nov-16 00:58N 40°41' W 074°09'0 0.0
2017-Nov-16 00:28N 40°41' W 074°09'0 0.0
2017-Nov-15 23:58N 40°41' W 074°09'0 0.0
2017-Nov-15 23:28N 40°41' W 074°09'0 0.0
2017-Nov-15 22:58N 40°41' W 074°09'0 0.0
2017-Nov-15 22:28N 40°41' W 074°09'0 0.0
2017-Nov-15 21:58N 40°41' W 074°09'0 0.0
2017-Nov-15 21:28N 40°41' W 074°09'0 0.0
2017-Nov-15 20:58N 40°41' W 074°09'0 0.0
2017-Nov-15 20:25N 40°41' W 074°09'0 0.0
2017-Nov-15 19:58N 40°41' W 074°09'  
Track history (hours):
 
Tides and Currents Weather Stations Pressure Air Temp Water Temp Dewpoint Dewpoint Depression Visibility Wind Speed Wind Dir Waves Ship Positions

Maersk Varna

Last reported at 2017-Nov-25 19:42 UTC. Time now 2017-Dec-11 11:14 UTC.
Position N 19°33' W 063°07'.
Warning: this ship's position is 15 days out of date.

Length 180 m; draft 8.6 m.

Type: Ship (hazmat cat A). MMSI: 564822000.

Date/timePositionNaut miles runAvg speedWind from/ knotsBaromVisibWave heightAir tempDewpointWater temp
2017-Nov-25 19:42N 19°33' W 063°07'416.9
2017-Nov-25 19:28N 19°35' W 063°10'  
2017-Nov-19 15:01N 36°46' W 075°44'210.0
2017-Nov-19 14:49N 36°47' W 075°45'3 9.6
2017-Nov-19 14:31N 36°49' W 075°48'510.1
2017-Nov-19 14:00N 36°52' W 075°53'510.0
2017-Nov-19 13:30N 36°56' W 075°57'510.0
2017-Nov-19 13:01N 36°58' W 076°03'814.8
2017-Nov-19 12:30N 36°60' W 076°12'613.0
2017-Nov-19 12:01N 36°58' W 076°20'5 9.8
2017-Nov-19 11:31N 36°53' W 076°20'1 1.9
2017-Nov-19 11:01N 36°53' W 076°21'0 0.0
2017-Nov-19 10:30N 36°53' W 076°21'0 0.0
2017-Nov-19 10:00N 36°53' W 076°21'0 0.0
2017-Nov-19 09:30N 36°53' W 076°21'0 0.0
2017-Nov-19 09:00N 36°53' W 076°21'0 0.0
2017-Nov-19 08:30N 36°53' W 076°21'0 0.0
2017-Nov-19 08:00N 36°53' W 076°21'0 0.0
2017-Nov-19 07:30N 36°53' W 076°21'0 0.0
2017-Nov-19 07:00N 36°53' W 076°21'0 0.0
2017-Nov-19 06:30N 36°53' W 076°21'0 0.0
2017-Nov-19 06:00N 36°53' W 076°21'0 0.0
2017-Nov-19 05:30N 36°53' W 076°21'0 0.0
2017-Nov-19 05:00N 36°53' W 076°21'0 0.0
2017-Nov-19 04:27N 36°53' W 076°21'0 0.0
2017-Nov-19 04:00N 36°53' W 076°21'0 0.0
2017-Nov-19 03:30N 36°53' W 076°21'0 0.0
2017-Nov-19 03:00N 36°53' W 076°21'0 0.0
2017-Nov-19 02:30N 36°53' W 076°21'0 0.0
2017-Nov-19 02:00N 36°53' W 076°21'0 0.0
2017-Nov-19 01:30N 36°53' W 076°21'0 0.0
2017-Nov-19 01:00N 36°53' W 076°21'0 0.0
2017-Nov-19 00:30N 36°53' W 076°21'0 0.0
2017-Nov-19 00:00N 36°53' W 076°21'0 0.0
2017-Nov-18 23:30N 36°53' W 076°21'0 0.0
2017-Nov-18 23:00N 36°53' W 076°21'0 0.0
2017-Nov-18 22:30N 36°53' W 076°21'1 1.6
2017-Nov-18 22:00N 36°53' W 076°20'4 8.7
2017-Nov-18 21:30N 36°57' W 076°20'1012.4
2017-Nov-18 20:41N 36°59' W 076°07'316.2
2017-Nov-18 20:30N 36°58' W 076°04'611.7
2017-Nov-18 20:00N 36°56' W 075°57'4 8.3
2017-Nov-18 19:30N 36°54' W 075°53'5 6.9
2017-Nov-18 18:50N 36°51' W 075°48'2 7.2
2017-Nov-18 18:30N 36°50' W 075°46'1 0.1
2017-Nov-18 07:49N 36°49' W 075°46'3 8.6
2017-Nov-18 07:30N 36°50' W 075°49'4 9.0
2017-Nov-18 07:01N 36°53' W 075°53'5 9.2
2017-Nov-18 06:31N 36°56' W 075°58'510.3
2017-Nov-18 06:00N 36°60' W 076°01'1217.7
2017-Nov-18 05:19N 37°10' W 076°09'4916.3
2017-Nov-18 02:19N 37°59' W 076°12'4118.3
2017-Nov-18 00:04N 38°39' W 076°25'118.1
2017-Nov-18 00:00N 38°40' W 076°25'917.6
2017-Nov-17 23:30N 38°49' W 076°25'917.3
2017-Nov-17 23:00N 38°57' W 076°23'714.8
2017-Nov-17 22:30N 39°05' W 076°24'713.0
2017-Nov-17 22:00N 39°11' W 076°27'612.0
2017-Nov-17 21:30N 39°14' W 076°33'1 1.3
2017-Nov-17 20:44N 39°15' W 076°33'0 0.0
2017-Nov-17 20:29N 39°15' W 076°33'0 0.0
2017-Nov-17 19:59N 39°15' W 076°33'0 0.0
2017-Nov-17 19:29N 39°15' W 076°33'0 0.0
2017-Nov-17 18:59N 39°15' W 076°33'0 0.0
2017-Nov-17 18:29N 39°15' W 076°33'0 0.0
2017-Nov-17 17:59N 39°15' W 076°33'0 0.0
2017-Nov-17 17:29N 39°15' W 076°33'0 0.0
2017-Nov-17 16:59N 39°15' W 076°33'0 0.0
2017-Nov-17 16:23N 39°15' W 076°33'0 0.0
2017-Nov-17 15:59N 39°15' W 076°33'0 0.0
2017-Nov-17 15:29N 39°15' W 076°33'0 0.0
2017-Nov-17 14:59N 39°15' W 076°33'0 0.0
2017-Nov-17 14:20N 39°15' W 076°33'0 0.0
2017-Nov-17 13:59N 39°15' W 076°33'0 0.0
2017-Nov-17 13:29N 39°15' W 076°33'0 0.0
2017-Nov-17 12:59N 39°15' W 076°33'0 0.0
2017-Nov-17 12:29N 39°15' W 076°33'0 0.6
2017-Nov-17 12:00N 39°15' W 076°33'2 3.4
2017-Nov-17 11:30N 39°13' W 076°32'4 8.4
2017-Nov-17 11:00N 39°11' W 076°28'611.2
2017-Nov-17 10:30N 39°06' W 076°24'714.0
2017-Nov-17 10:00N 38°59' W 076°23'815.5
2017-Nov-17 09:30N 38°52' W 076°24'917.8
2017-Nov-17 09:00N 38°43' W 076°26'10515.8
2017-Nov-17 02:24N 37°00' W 076°01'511.3
2017-Nov-17 01:59N 36°57' W 075°58'5 8.2
2017-Nov-17 01:23N 36°54' W 075°53'5 8.3
2017-Nov-17 00:47N 36°51' W 075°48'13412.6
2017-Nov-16 14:08N 38°46' W 074°20'214.2
2017-Nov-16 13:58N 38°48' W 074°19'714.2
2017-Nov-16 13:31N 38°54' W 074°16'714.1
2017-Nov-16 13:00N 39°01' W 074°13'713.6
2017-Nov-16 12:30N 39°07' W 074°10'713.5
2017-Nov-16 11:59N 39°14' W 074°07'713.5
2017-Nov-16 11:28N 39°20' W 074°04'713.4
2017-Nov-16 10:56N 39°27' W 074°00'613.4
2017-Nov-16 10:29N 39°32' W 073°57'713.2
2017-Nov-16 09:59N 39°39' W 073°54'713.1
2017-Nov-16 09:28N 39°45' W 073°51'613.1
2017-Nov-16 09:00N 39°51' W 073°51'2112.6
2017-Nov-16 07:21N 40°12' W 073°50'410.0
2017-Nov-16 06:57N 40°16' W 073°49'4 9.9
2017-Nov-16 06:30N 40°20' W 073°49'5 9.9
2017-Nov-16 06:00N 40°25' W 073°49'4 7.4
2017-Nov-16 05:29N 40°28' W 073°52'510.9
2017-Nov-16 05:00N 40°30' W 073°58'714.5
2017-Nov-16 04:31N 40°37' W 074°03'4 7.5
2017-Nov-16 04:00N 40°39' W 074°07'2 3.8
2017-Nov-16 03:30N 40°40' W 074°08'1 2.1
2017-Nov-16 03:00N 40°41' W 074°09'0 0.0
2017-Nov-16 02:30N 40°41' W 074°09'0 0.0
2017-Nov-16 02:00N 40°41' W 074°09'0 0.0
2017-Nov-16 01:30N 40°41' W 074°09'0 0.0
2017-Nov-16 00:58N 40°41' W 074°09'0 0.0
2017-Nov-16 00:28N 40°41' W 074°09'0 0.0
2017-Nov-15 23:58N 40°41' W 074°09'0 0.0
2017-Nov-15 23:28N 40°41' W 074°09'0 0.0
2017-Nov-15 22:58N 40°41' W 074°09'0 0.0
2017-Nov-15 22:28N 40°41' W 074°09'0 0.0
2017-Nov-15 21:58N 40°41' W 074°09'0 0.0
2017-Nov-15 21:28N 40°41' W 074°09'0 0.0
2017-Nov-15 20:58N 40°41' W 074°09'0 0.0
2017-Nov-15 20:25N 40°41' W 074°09'0 0.0
2017-Nov-15 19:58N 40°41' W 074°09'  

Dump ship's entire track history